Time,TemperatureF,DewpointF,PressureIn,WindDirection,WindDirectionDegrees,WindSpeedMPH,WindSpeedGustMPH,Humidity,HourlyPrecipIn,Conditions,Clouds,dailyrainin,SoftwareType,DateUTC
2017-07-25 00:02:00,75.3,57.0,29.60,SW,234,0.0,-999.0,54,-99.99,,,0.00,weatherlink.com 1.10,2017-07-25 06:02:00,
2017-07-25 00:17:00,74.6,58.0,29.58,SW,234,0.0,-999.0,56,-99.99,,,0.00,weatherlink.com 1.10,2017-07-25 06:17:00,
2017-07-25 00:32:00,74.0,58.0,29.59,SW,234,0.0,-999.0,57,-99.99,,,0.00,weatherlink.com 1.10,2017-07-25 06:32:00,
2017-07-25 00:47:00,73.5,57.0,29.59,SW,234,0.0,-999.0,57,-99.99,,,0.00,weatherlink.com 1.10,2017-07-25 06:47:00,
2017-07-25 01:02:00,73.2,58.0,29.59,SW,234,0.0,-999.0,59,-99.99,,,0.00,weatherlink.com 1.10,2017-07-25 07:02:00,
2017-07-25 01:17:00,72.7,58.0,29.59,SW,234,0.0,-999.0,60,-99.99,,,0.00,weatherlink.com 1.10,2017-07-25 07:17:00,
2017-07-25 01:32:00,72.3,58.0,29.60,SW,234,0.0,-999.0,61,-99.99,,,0.00,weatherlink.com 1.10,2017-07-25 07:32:00,
2017-07-25 01:47:00,72.0,58.0,29.60,SW,234,0.0,-999.0,61,-99.99,,,0.00,weatherlink.com 1.10,2017-07-25 07:47:00,
2017-07-25 02:02:00,71.8,57.0,29.59,SW,234,0.0,-999.0,61,-99.99,,,0.00,weatherlink.com 1.10,2017-07-25 08:02:00,
2017-07-25 02:17:00,71.8,57.0,29.59,SW,234,0.0,-999.0,61,-99.99,,,0.00,weatherlink.com 1.10,2017-07-25 08:17:00,
2017-07-25 02:32:00,71.6,57.0,29.59,SW,234,0.0,-999.0,61,-99.99,,,0.00,weatherlink.com 1.10,2017-07-25 08:32:00,
2017-07-25 02:47:00,71.5,57.0,29.59,SW,234,0.0,-999.0,60,-99.99,,,0.00,weatherlink.com 1.10,2017-07-25 08:47:00,
2017-07-25 03:02:00,71.5,56.0,29.60,SW,234,0.0,-999.0,59,-99.99,,,0.00,weatherlink.com 1.10,2017-07-25 09:02:00,
2017-07-25 03:17:00,71.3,57.0,29.59,SW,234,0.0,-999.0,60,-99.99,,,0.00,weatherlink.com 1.10,2017-07-25 09:17:00,
2017-07-25 03:32:00,70.9,57.0,29.60,SW,234,0.0,-999.0,61,-99.99,,,0.00,weatherlink.com 1.10,2017-07-25 09:32:00,
2017-07-25 03:47:00,70.4,56.0,29.61,SW,234,0.0,-999.0,60,-99.99,,,0.00,weatherlink.com 1.10,2017-07-25 09:47:00,
2017-07-25 04:02:00,70.3,56.0,29.62,SW,234,0.0,-999.0,60,-99.99,,,0.00,weatherlink.com 1.10,2017-07-25 10:02:00,
2017-07-25 04:17:00,70.3,56.0,29.62,SW,234,0.0,-999.0,61,-99.99,,,0.00,weatherlink.com 1.10,2017-07-25 10:17:00,
2017-07-25 04:33:00,70.1,56.0,29.62,SW,234,0.0,-999.0,62,-99.99,,,0.00,weatherlink.com 1.10,2017-07-25 10:33:00,
2017-07-25 04:47:00,69.8,57.0,29.62,SW,234,0.0,-999.0,63,-99.99,,,0.00,weatherlink.com 1.10,2017-07-25 10:47:00,
2017-07-25 05:03:00,69.6,57.0,29.62,SW,234,0.0,-999.0,64,-99.99,,,0.00,weatherlink.com 1.10,2017-07-25 11:03:00,
2017-07-25 05:18:00,69.3,57.0,29.64,SW,234,0.0,-999.0,65,-99.99,,,0.00,weatherlink.com 1.10,2017-07-25 11:18:00,
2017-07-25 05:33:00,68.6,57.0,29.64,SW,234,0.0,-999.0,66,-99.99,,,0.00,weatherlink.com 1.10,2017-07-25 11:33:00,
2017-07-25 05:48:00,68.1,57.0,29.66,SW,234,0.0,-999.0,67,-99.99,,,0.00,weatherlink.com 1.10,2017-07-25 11:48:00,
2017-07-25 06:03:00,67.6,57.0,29.66,SW,234,0.0,-999.0,68,-99.99,,,0.00,weatherlink.com 1.10,2017-07-25 12:03:00,
2017-07-25 06:18:00,67.3,57.0,29.68,SW,234,0.0,-999.0,70,-99.99,,,0.00,weatherlink.com 1.10,2017-07-25 12:18:00,
2017-07-25 06:33:00,67.1,57.0,29.69,SW,234,0.0,-999.0,70,-99.99,,,0.00,weatherlink.com 1.10,2017-07-25 12:33:00,
2017-07-25 06:48:00,67.1,58.0,29.70,SW,234,0.0,-999.0,72,-99.99,,,0.00,weatherlink.com 1.10,2017-07-25 12:48:00,
2017-07-25 07:03:00,67.4,58.0,29.70,SW,234,0.0,-999.0,71,-99.99,,,0.00,weatherlink.com 1.10,2017-07-25 13:03:00,
2017-07-25 07:18:00,67.8,58.0,29.71,SW,234,0.0,-999.0,72,-99.99,,,0.00,weatherlink.com 1.10,2017-07-25 13:18:00,
2017-07-25 07:33:00,68.1,59.0,29.71,SW,234,0.0,-999.0,73,-99.99,,,0.00,weatherlink.com 1.10,2017-07-25 13:33:00,
2017-07-25 07:48:00,68.4,59.0,29.72,SW,234,0.0,-999.0,72,-99.99,,,0.00,weatherlink.com 1.10,2017-07-25 13:48:00,
2017-07-25 08:03:00,70.1,60.0,29.72,SSW,210,0.0,-999.0,70,-99.99,,,0.00,weatherlink.com 1.10,2017-07-25 14:03:00,
2017-07-25 08:18:00,72.1,60.0,29.72,SSW,198,0.0,-999.0,66,-99.99,,,0.00,weatherlink.com 1.10,2017-07-25 14:18:00,
2017-07-25 08:33:00,73.5,61.0,29.71,SSW,192,0.0,-999.0,64,-99.99,,,0.00,weatherlink.com 1.10,2017-07-25 14:33:00,
2017-07-25 08:48:00,74.6,60.0,29.71,South,186,0.0,-999.0,61,-99.99,,,0.00,weatherlink.com 1.10,2017-07-25 14:48:00,
2017-07-25 09:03:00,75.6,61.0,29.70,South,179,1.0,-999.0,60,-99.99,,,0.00,weatherlink.com 1.10,2017-07-25 15:03:00,
2017-07-25 09:18:00,76.8,60.0,29.70,SSW,202,3.0,-999.0,57,-99.99,,,0.00,weatherlink.com 1.10,2017-07-25 15:18:00,